sensor_id;sensor_type;location;lat;lon;timestamp;P1;durP1;ratioP1;P2;durP2;ratioP2
32082;SDS011;18597;48.328;7.932;2023-04-23T00:00:04;4.70;;;4.40;;
32082;SDS011;18597;48.328;7.932;2023-04-23T00:02:32;5.60;;;4.90;;
32082;SDS011;18597;48.328;7.932;2023-04-23T00:05:02;5.30;;;4.23;;
32082;SDS011;18597;48.328;7.932;2023-04-23T00:07:31;4.57;;;4.10;;
32082;SDS011;18597;48.328;7.932;2023-04-23T00:09:58;5.17;;;3.77;;
32082;SDS011;18597;48.328;7.932;2023-04-23T00:12:26;7.13;;;5.33;;
32082;SDS011;18597;48.328;7.932;2023-04-23T00:14:53;8.80;;;4.83;;
32082;SDS011;18597;48.328;7.932;2023-04-23T00:17:19;6.10;;;5.17;;
32082;SDS011;18597;48.328;7.932;2023-04-23T00:19:45;4.83;;;4.53;;
32082;SDS011;18597;48.328;7.932;2023-04-23T00:22:11;5.93;;;5.00;;
32082;SDS011;18597;48.328;7.932;2023-04-23T00:24:38;6.63;;;5.67;;
32082;SDS011;18597;48.328;7.932;2023-04-23T00:27:04;5.43;;;4.93;;
32082;SDS011;18597;48.328;7.932;2023-04-23T00:29:31;9.10;;;5.93;;
32082;SDS011;18597;48.328;7.932;2023-04-23T00:31:57;5.93;;;5.20;;
32082;SDS011;18597;48.328;7.932;2023-04-23T00:34:23;5.20;;;4.90;;
32082;SDS011;18597;48.328;7.932;2023-04-23T00:36:49;5.27;;;4.90;;
32082;SDS011;18597;48.328;7.932;2023-04-23T00:39:15;6.43;;;5.67;;
32082;SDS011;18597;48.328;7.932;2023-04-23T00:41:41;5.80;;;5.30;;
32082;SDS011;18597;48.328;7.932;2023-04-23T00:44:07;5.80;;;5.20;;
32082;SDS011;18597;48.328;7.932;2023-04-23T00:46:34;7.30;;;5.50;;
32082;SDS011;18597;48.328;7.932;2023-04-23T00:49:01;5.77;;;5.10;;
32082;SDS011;18597;48.328;7.932;2023-04-23T00:51:27;7.20;;;5.90;;
32082;SDS011;18597;48.328;7.932;2023-04-23T00:53:54;7.80;;;6.17;;
32082;SDS011;18597;48.328;7.932;2023-04-23T00:56:21;6.03;;;5.43;;
32082;SDS011;18597;48.328;7.932;2023-04-23T00:58:48;16.10;;;6.60;;
32082;SDS011;18597;48.328;7.932;2023-04-23T01:01:16;10.00;;;6.43;;
32082;SDS011;18597;48.328;7.932;2023-04-23T01:03:45;6.10;;;5.60;;
32082;SDS011;18597;48.328;7.932;2023-04-23T01:06:16;6.07;;;5.47;;
32082;SDS011;18597;48.328;7.932;2023-04-23T01:08:42;4.93;;;4.63;;
32082;SDS011;18597;48.328;7.932;2023-04-23T01:11:12;7.73;;;5.20;;
32082;SDS011;18597;48.328;7.932;2023-04-23T01:13:39;5.07;;;4.67;;
32082;SDS011;18597;48.328;7.932;2023-04-23T01:16:07;7.33;;;6.47;;
32082;SDS011;18597;48.328;7.932;2023-04-23T01:18:33;8.90;;;5.33;;
32082;SDS011;18597;48.328;7.932;2023-04-23T01:21:00;5.03;;;4.53;;
32082;SDS011;18597;48.328;7.932;2023-04-23T01:23:26;6.30;;;5.43;;
32082;SDS011;18597;48.328;7.932;2023-04-23T01:25:52;4.43;;;4.17;;
32082;SDS011;18597;48.328;7.932;2023-04-23T01:28:19;4.33;;;4.03;;
32082;SDS011;18597;48.328;7.932;2023-04-23T01:30:45;3.23;;;3.10;;
32082;SDS011;18597;48.328;7.932;2023-04-23T01:33:12;4.37;;;4.23;;
32082;SDS011;18597;48.328;7.932;2023-04-23T01:35:40;4.47;;;4.10;;
32082;SDS011;18597;48.328;7.932;2023-04-23T01:38:07;5.10;;;4.73;;
32082;SDS011;18597;48.328;7.932;2023-04-23T01:40:36;3.77;;;3.57;;
32082;SDS011;18597;48.328;7.932;2023-04-23T01:43:02;3.93;;;3.80;;
32082;SDS011;18597;48.328;7.932;2023-04-23T01:45:29;4.60;;;4.20;;
32082;SDS011;18597;48.328;7.932;2023-04-23T01:47:55;3.40;;;3.10;;
32082;SDS011;18597;48.328;7.932;2023-04-23T01:50:23;3.77;;;3.67;;
32082;SDS011;18597;48.328;7.932;2023-04-23T01:52:50;3.00;;;2.90;;
32082;SDS011;18597;48.328;7.932;2023-04-23T01:55:16;4.00;;;3.57;;
32082;SDS011;18597;48.328;7.932;2023-04-23T01:57:43;3.80;;;3.50;;
32082;SDS011;18597;48.328;7.932;2023-04-23T02:00:11;3.30;;;3.20;;
32082;SDS011;18597;48.328;7.932;2023-04-23T02:02:40;3.13;;;3.03;;
32082;SDS011;18597;48.328;7.932;2023-04-23T02:05:09;2.70;;;2.60;;
32082;SDS011;18597;48.328;7.932;2023-04-23T02:07:38;4.60;;;3.73;;
32082;SDS011;18597;48.328;7.932;2023-04-23T02:10:04;3.10;;;3.00;;
32082;SDS011;18597;48.328;7.932;2023-04-23T02:12:31;2.70;;;2.60;;
32082;SDS011;18597;48.328;7.932;2023-04-23T02:14:57;3.17;;;2.97;;
32082;SDS011;18597;48.328;7.932;2023-04-23T02:17:25;4.00;;;2.63;;
32082;SDS011;18597;48.328;7.932;2023-04-23T02:19:53;2.27;;;2.27;;
32082;SDS011;18597;48.328;7.932;2023-04-23T02:22:20;2.23;;;2.00;;
32082;SDS011;18597;48.328;7.932;2023-04-23T02:24:49;2.30;;;2.20;;
32082;SDS011;18597;48.328;7.932;2023-04-23T02:27:15;4.30;;;2.20;;
32082;SDS011;18597;48.328;7.932;2023-04-23T02:29:41;2.23;;;2.23;;
32082;SDS011;18597;48.328;7.932;2023-04-23T02:32:07;2.13;;;2.03;;
32082;SDS011;18597;48.328;7.932;2023-04-23T02:34:33;2.07;;;2.07;;
32082;SDS011;18597;48.328;7.932;2023-04-23T02:36:59;2.27;;;2.17;;
32082;SDS011;18597;48.328;7.932;2023-04-23T02:39:25;2.23;;;2.20;;
32082;SDS011;18597;48.328;7.932;2023-04-23T02:41:51;2.73;;;2.10;;
32082;SDS011;18597;48.328;7.932;2023-04-23T02:44:16;2.43;;;2.33;;
32082;SDS011;18597;48.328;7.932;2023-04-23T02:46:42;1.80;;;1.80;;
32082;SDS011;18597;48.328;7.932;2023-04-23T02:49:08;2.07;;;1.97;;
32082;SDS011;18597;48.328;7.932;2023-04-23T02:51:34;1.60;;;1.50;;
32082;SDS011;18597;48.328;7.932;2023-04-23T02:54:00;1.63;;;1.63;;
32082;SDS011;18597;48.328;7.932;2023-04-23T02:56:27;2.97;;;2.00;;
32082;SDS011;18597;48.328;7.932;2023-04-23T02:58:53;4.73;;;1.47;;
32082;SDS011;18597;48.328;7.932;2023-04-23T03:01:19;2.07;;;1.97;;
32082;SDS011;18597;48.328;7.932;2023-04-23T03:03:45;1.67;;;1.67;;
32082;SDS011;18597;48.328;7.932;2023-04-23T03:06:11;2.20;;;2.10;;
32082;SDS011;18597;48.328;7.932;2023-04-23T03:08:37;1.40;;;1.40;;
32082;SDS011;18597;48.328;7.932;2023-04-23T03:11:02;1.80;;;1.37;;
32082;SDS011;18597;48.328;7.932;2023-04-23T03:13:28;0.97;;;0.97;;
32082;SDS011;18597;48.328;7.932;2023-04-23T03:15:54;1.30;;;1.30;;
32082;SDS011;18597;48.328;7.932;2023-04-23T03:18:20;1.03;;;1.03;;
32082;SDS011;18597;48.328;7.932;2023-04-23T03:20:47;2.53;;;1.20;;
32082;SDS011;18597;48.328;7.932;2023-04-23T03:23:12;1.27;;;1.27;;
32082;SDS011;18597;48.328;7.932;2023-04-23T03:25:38;4.90;;;1.10;;
32082;SDS011;18597;48.328;7.932;2023-04-23T03:28:04;1.87;;;1.80;;
32082;SDS011;18597;48.328;7.932;2023-04-23T03:30:30;2.70;;;2.30;;
32082;SDS011;18597;48.328;7.932;2023-04-23T03:32:56;1.30;;;1.30;;
32082;SDS011;18597;48.328;7.932;2023-04-23T03:35:23;1.80;;;1.70;;
32082;SDS011;18597;48.328;7.932;2023-04-23T03:37:50;0.83;;;0.83;;
32082;SDS011;18597;48.328;7.932;2023-04-23T03:40:17;1.70;;;1.70;;
32082;SDS011;18597;48.328;7.932;2023-04-23T03:42:44;1.40;;;1.40;;
32082;SDS011;18597;48.328;7.932;2023-04-23T03:45:10;1.10;;;1.10;;
32082;SDS011;18597;48.328;7.932;2023-04-23T03:47:37;1.20;;;1.20;;
32082;SDS011;18597;48.328;7.932;2023-04-23T03:50:04;1.53;;;1.53;;
32082;SDS011;18597;48.328;7.932;2023-04-23T03:52:33;1.50;;;1.50;;
32082;SDS011;18597;48.328;7.932;2023-04-23T03:54:59;1.20;;;1.20;;
32082;SDS011;18597;48.328;7.932;2023-04-23T03:57:25;1.00;;;1.00;;
32082;SDS011;18597;48.328;7.932;2023-04-23T03:59:51;1.40;;;1.40;;
32082;SDS011;18597;48.328;7.932;2023-04-23T04:02:17;1.70;;;1.60;;
32082;SDS011;18597;48.328;7.932;2023-04-23T04:04:43;0.70;;;0.70;;
32082;SDS011;18597;48.328;7.932;2023-04-23T04:07:10;1.07;;;1.07;;
32082;SDS011;18597;48.328;7.932;2023-04-23T04:09:37;2.83;;;2.60;;
32082;SDS011;18597;48.328;7.932;2023-04-23T04:12:04;3.13;;;1.60;;
32082;SDS011;18597;48.328;7.932;2023-04-23T04:14:30;3.10;;;1.00;;
32082;SDS011;18597;48.328;7.932;2023-04-23T04:16:57;2.03;;;1.87;;
32082;SDS011;18597;48.328;7.932;2023-04-23T04:19:23;2.30;;;1.47;;
32082;SDS011;18597;48.328;7.932;2023-04-23T04:21:49;1.70;;;1.60;;
32082;SDS011;18597;48.328;7.932;2023-04-23T04:24:16;2.40;;;2.20;;
32082;SDS011;18597;48.328;7.932;2023-04-23T04:26:42;1.93;;;1.90;;
32082;SDS011;18597;48.328;7.932;2023-04-23T04:29:09;1.67;;;1.57;;
32082;SDS011;18597;48.328;7.932;2023-04-23T04:31:36;4.00;;;2.20;;
32082;SDS011;18597;48.328;7.932;2023-04-23T04:34:02;1.00;;;1.00;;
32082;SDS011;18597;48.328;7.932;2023-04-23T04:36:28;3.67;;;1.80;;
32082;SDS011;18597;48.328;7.932;2023-04-23T04:38:55;1.63;;;1.63;;
32082;SDS011;18597;48.328;7.932;2023-04-23T04:41:23;4.82;;;2.33;;
32082;SDS011;18597;48.328;7.932;2023-04-23T04:43:50;3.10;;;2.80;;
32082;SDS011;18597;48.328;7.932;2023-04-23T04:46:16;10.50;;;5.00;;
32082;SDS011;18597;48.328;7.932;2023-04-23T04:48:46;7.50;;;6.13;;
32082;SDS011;18597;48.328;7.932;2023-04-23T04:51:12;4.50;;;3.83;;
32082;SDS011;18597;48.328;7.932;2023-04-23T04:53:38;52.20;;;24.67;;
32082;SDS011;18597;48.328;7.932;2023-04-23T04:56:04;83.80;;;41.37;;
32082;SDS011;18597;48.328;7.932;2023-04-23T04:58:29;45.60;;;27.27;;
32082;SDS011;18597;48.328;7.932;2023-04-23T05:00:55;14.77;;;9.60;;
32082;SDS011;18597;48.328;7.932;2023-04-23T05:03:23;3.20;;;3.10;;
32082;SDS011;18597;48.328;7.932;2023-04-23T05:05:50;1.90;;;1.90;;
32082;SDS011;18597;48.328;7.932;2023-04-23T05:08:18;0.97;;;0.97;;
32082;SDS011;18597;48.328;7.932;2023-04-23T05:10:45;1.33;;;1.27;;
32082;SDS011;18597;48.328;7.932;2023-04-23T05:13:11;2.63;;;1.87;;
32082;SDS011;18597;48.328;7.932;2023-04-23T05:15:37;1.60;;;1.60;;
32082;SDS011;18597;48.328;7.932;2023-04-23T05:18:03;1.83;;;1.73;;
32082;SDS011;18597;48.328;7.932;2023-04-23T05:20:30;1.50;;;1.50;;
32082;SDS011;18597;48.328;7.932;2023-04-23T05:22:56;3.93;;;2.70;;
32082;SDS011;18597;48.328;7.932;2023-04-23T05:25:26;5.47;;;5.07;;
32082;SDS011;18597;48.328;7.932;2023-04-23T05:27:54;3.00;;;2.90;;
32082;SDS011;18597;48.328;7.932;2023-04-23T05:30:20;2.30;;;2.10;;
32082;SDS011;18597;48.328;7.932;2023-04-23T05:32:45;2.10;;;2.03;;
32082;SDS011;18597;48.328;7.932;2023-04-23T05:35:11;2.60;;;2.40;;
32082;SDS011;18597;48.328;7.932;2023-04-23T05:37:37;1.90;;;1.90;;
32082;SDS011;18597;48.328;7.932;2023-04-23T05:40:03;2.27;;;2.17;;
32082;SDS011;18597;48.328;7.932;2023-04-23T05:42:31;4.27;;;3.97;;
32082;SDS011;18597;48.328;7.932;2023-04-23T05:44:58;3.90;;;2.13;;
32082;SDS011;18597;48.328;7.932;2023-04-23T05:47:24;2.10;;;1.40;;
32082;SDS011;18597;48.328;7.932;2023-04-23T05:49:50;1.30;;;1.30;;
32082;SDS011;18597;48.328;7.932;2023-04-23T05:52:17;1.07;;;1.07;;
32082;SDS011;18597;48.328;7.932;2023-04-23T05:54:43;1.30;;;1.30;;
32082;SDS011;18597;48.328;7.932;2023-04-23T05:57:09;0.77;;;0.77;;
32082;SDS011;18597;48.328;7.932;2023-04-23T05:59:36;2.20;;;0.90;;
32082;SDS011;18597;48.328;7.932;2023-04-23T06:02:02;0.83;;;0.83;;
32082;SDS011;18597;48.328;7.932;2023-04-23T06:04:28;2.07;;;1.97;;
32082;SDS011;18597;48.328;7.932;2023-04-23T06:06:54;1.83;;;1.73;;
32082;SDS011;18597;48.328;7.932;2023-04-23T06:09:19;0.90;;;0.90;;
32082;SDS011;18597;48.328;7.932;2023-04-23T06:11:45;0.77;;;0.77;;
32082;SDS011;18597;48.328;7.932;2023-04-23T06:14:14;1.23;;;1.23;;
32082;SDS011;18597;48.328;7.932;2023-04-23T06:16:40;2.20;;;1.00;;
32082;SDS011;18597;48.328;7.932;2023-04-23T06:19:06;4.83;;;4.63;;
32082;SDS011;18597;48.328;7.932;2023-04-23T06:21:32;2.10;;;2.10;;
32082;SDS011;18597;48.328;7.932;2023-04-23T06:23:58;2.20;;;1.20;;
32082;SDS011;18597;48.328;7.932;2023-04-23T06:26:24;0.73;;;0.73;;
32082;SDS011;18597;48.328;7.932;2023-04-23T06:28:49;1.90;;;0.90;;
32082;SDS011;18597;48.328;7.932;2023-04-23T06:31:15;0.77;;;0.77;;
32082;SDS011;18597;48.328;7.932;2023-04-23T06:33:41;0.43;;;0.43;;
32082;SDS011;18597;48.328;7.932;2023-04-23T06:36:07;1.53;;;0.50;;
32082;SDS011;18597;48.328;7.932;2023-04-23T06:38:35;0.40;;;0.40;;
32082;SDS011;18597;48.328;7.932;2023-04-23T06:41:02;1.00;;;0.70;;
32082;SDS011;18597;48.328;7.932;2023-04-23T06:43:29;0.77;;;0.77;;
32082;SDS011;18597;48.328;7.932;2023-04-23T06:45:55;2.00;;;0.57;;
32082;SDS011;18597;48.328;7.932;2023-04-23T06:48:21;0.83;;;0.50;;
32082;SDS011;18597;48.328;7.932;2023-04-23T06:50:47;2.13;;;0.70;;
32082;SDS011;18597;48.328;7.932;2023-04-23T06:53:13;0.83;;;0.30;;
32082;SDS011;18597;48.328;7.932;2023-04-23T06:55:39;0.63;;;0.63;;
32082;SDS011;18597;48.328;7.932;2023-04-23T06:58:05;0.80;;;0.80;;
32082;SDS011;18597;48.328;7.932;2023-04-23T07:00:31;0.60;;;0.60;;
32082;SDS011;18597;48.328;7.932;2023-04-23T07:02:57;0.57;;;0.40;;
32082;SDS011;18597;48.328;7.932;2023-04-23T07:05:23;0.40;;;0.40;;
32082;SDS011;18597;48.328;7.932;2023-04-23T07:07:50;2.00;;;0.93;;
32082;SDS011;18597;48.328;7.932;2023-04-23T07:10:17;0.83;;;0.83;;
32082;SDS011;18597;48.328;7.932;2023-04-23T07:12:43;2.07;;;2.07;;
32082;SDS011;18597;48.328;7.932;2023-04-23T07:15:09;0.90;;;0.80;;
32082;SDS011;18597;48.328;7.932;2023-04-23T07:17:36;0.60;;;0.60;;
32082;SDS011;18597;48.328;7.932;2023-04-23T07:20:02;0.90;;;0.90;;
32082;SDS011;18597;48.328;7.932;2023-04-23T07:22:30;0.70;;;0.70;;
32082;SDS011;18597;48.328;7.932;2023-04-23T07:24:57;1.00;;;0.90;;
32082;SDS011;18597;48.328;7.932;2023-04-23T07:27:23;0.70;;;0.70;;
32082;SDS011;18597;48.328;7.932;2023-04-23T07:29:49;0.60;;;0.60;;
32082;SDS011;18597;48.328;7.932;2023-04-23T07:32:15;0.77;;;0.77;;
32082;SDS011;18597;48.328;7.932;2023-04-23T07:34:41;0.80;;;0.80;;
32082;SDS011;18597;48.328;7.932;2023-04-23T07:37:07;0.93;;;0.93;;
32082;SDS011;18597;48.328;7.932;2023-04-23T07:39:33;1.37;;;1.00;;
32082;SDS011;18597;48.328;7.932;2023-04-23T07:41:59;0.53;;;0.53;;
32082;SDS011;18597;48.328;7.932;2023-04-23T07:44:26;1.37;;;1.27;;
32082;SDS011;18597;48.328;7.932;2023-04-23T07:46:52;0.47;;;0.47;;
32082;SDS011;18597;48.328;7.932;2023-04-23T07:49:18;0.60;;;0.60;;
32082;SDS011;18597;48.328;7.932;2023-04-23T07:51:44;0.60;;;0.60;;
32082;SDS011;18597;48.328;7.932;2023-04-23T07:54:10;2.23;;;0.97;;
32082;SDS011;18597;48.328;7.932;2023-04-23T07:56:36;2.37;;;1.03;;
32082;SDS011;18597;48.328;7.932;2023-04-23T07:59:01;1.50;;;0.60;;
32082;SDS011;18597;48.328;7.932;2023-04-23T08:01:29;0.70;;;0.70;;
32082;SDS011;18597;48.328;7.932;2023-04-23T08:03:56;4.63;;;0.90;;
32082;SDS011;18597;48.328;7.932;2023-04-23T08:06:22;0.70;;;0.70;;
32082;SDS011;18597;48.328;7.932;2023-04-23T08:08:48;0.83;;;0.83;;
32082;SDS011;18597;48.328;7.932;2023-04-23T08:11:14;0.60;;;0.60;;
32082;SDS011;18597;48.328;7.932;2023-04-23T08:13:40;0.83;;;0.83;;
32082;SDS011;18597;48.328;7.932;2023-04-23T08:16:06;0.90;;;0.90;;
32082;SDS011;18597;48.328;7.932;2023-04-23T08:18:32;0.80;;;0.60;;
32082;SDS011;18597;48.328;7.932;2023-04-23T08:20:59;0.87;;;0.87;;
32082;SDS011;18597;48.328;7.932;2023-04-23T08:23:25;0.87;;;0.87;;
32082;SDS011;18597;48.328;7.932;2023-04-23T08:25:52;0.80;;;0.80;;
32082;SDS011;18597;48.328;7.932;2023-04-23T08:28:18;0.80;;;0.80;;
32082;SDS011;18597;48.328;7.932;2023-04-23T08:30:44;1.40;;;0.70;;
32082;SDS011;18597;48.328;7.932;2023-04-23T08:33:10;1.73;;;1.63;;
32082;SDS011;18597;48.328;7.932;2023-04-23T08:35:36;1.30;;;1.20;;
32082;SDS011;18597;48.328;7.932;2023-04-23T08:38:02;1.43;;;1.17;;
32082;SDS011;18597;48.328;7.932;2023-04-23T08:40:29;1.77;;;1.77;;
32082;SDS011;18597;48.328;7.932;2023-04-23T08:43:15;1.13;;;1.00;;
32082;SDS011;18597;48.328;7.932;2023-04-23T08:45:45;1.40;;;1.30;;
32082;SDS011;18597;48.328;7.932;2023-04-23T08:48:13;0.87;;;0.87;;
32082;SDS011;18597;48.328;7.932;2023-04-23T08:50:41;1.03;;;1.03;;
32082;SDS011;18597;48.328;7.932;2023-04-23T08:53:08;1.60;;;1.50;;
32082;SDS011;18597;48.328;7.932;2023-04-23T08:55:35;2.30;;;1.20;;
32082;SDS011;18597;48.328;7.932;2023-04-23T08:58:01;1.10;;;1.10;;
32082;SDS011;18597;48.328;7.932;2023-04-23T09:00:30;1.10;;;1.10;;
32082;SDS011;18597;48.328;7.932;2023-04-23T09:02:58;0.80;;;0.80;;
32082;SDS011;18597;48.328;7.932;2023-04-23T09:05:25;1.37;;;0.87;;
32082;SDS011;18597;48.328;7.932;2023-04-23T09:07:52;1.30;;;1.30;;
32082;SDS011;18597;48.328;7.932;2023-04-23T09:10:18;1.20;;;1.20;;
32082;SDS011;18597;48.328;7.932;2023-04-23T09:12:44;0.80;;;0.80;;
32082;SDS011;18597;48.328;7.932;2023-04-23T09:15:12;1.10;;;1.10;;
32082;SDS011;18597;48.328;7.932;2023-04-23T09:17:38;1.13;;;1.13;;
32082;SDS011;18597;48.328;7.932;2023-04-23T09:20:07;1.50;;;1.50;;
32082;SDS011;18597;48.328;7.932;2023-04-23T09:22:50;1.33;;;1.33;;
32082;SDS011;18597;48.328;7.932;2023-04-23T09:25:18;1.70;;;0.80;;
32082;SDS011;18597;48.328;7.932;2023-04-23T09:27:47;1.10;;;1.10;;
32082;SDS011;18597;48.328;7.932;2023-04-23T09:30:15;3.30;;;1.27;;
32082;SDS011;18597;48.328;7.932;2023-04-23T09:32:43;1.60;;;1.50;;
32082;SDS011;18597;48.328;7.932;2023-04-23T09:35:11;1.80;;;1.70;;
32082;SDS011;18597;48.328;7.932;2023-04-23T09:37:48;2.10;;;1.60;;
32082;SDS011;18597;48.328;7.932;2023-04-23T09:40:17;1.53;;;1.53;;
32082;SDS011;18597;48.328;7.932;2023-04-23T09:42:50;1.00;;;1.00;;
32082;SDS011;18597;48.328;7.932;2023-04-23T09:45:18;1.50;;;1.40;;
32082;SDS011;18597;48.328;7.932;2023-04-23T09:47:52;1.30;;;1.20;;
32082;SDS011;18597;48.328;7.932;2023-04-23T09:50:51;1.50;;;1.40;;
32082;SDS011;18597;48.328;7.932;2023-04-23T09:53:07;1.13;;;1.13;;
32082;SDS011;18597;48.328;7.932;2023-04-23T09:55:35;1.27;;;1.27;;
32082;SDS011;18597;48.328;7.932;2023-04-23T09:58:03;1.17;;;1.10;;
32082;SDS011;18597;48.328;7.932;2023-04-23T10:00:40;1.40;;;1.30;;
32082;SDS011;18597;48.328;7.932;2023-04-23T10:03:07;3.70;;;1.50;;
32082;SDS011;18597;48.328;7.932;2023-04-23T10:05:37;1.50;;;1.50;;
32082;SDS011;18597;48.328;7.932;2023-04-23T10:08:05;0.83;;;0.83;;
32082;SDS011;18597;48.328;7.932;2023-04-23T10:10:31;0.87;;;0.80;;
32082;SDS011;18597;48.328;7.932;2023-04-23T10:12:59;0.80;;;0.80;;
32082;SDS011;18597;48.328;7.932;2023-04-23T10:15:26;1.10;;;1.03;;
32082;SDS011;18597;48.328;7.932;2023-04-23T10:17:53;1.23;;;1.13;;
32082;SDS011;18597;48.328;7.932;2023-04-23T10:20:20;1.40;;;1.30;;
32082;SDS011;18597;48.328;7.932;2023-04-23T10:22:47;1.00;;;1.00;;
32082;SDS011;18597;48.328;7.932;2023-04-23T10:25:14;2.60;;;0.93;;
32082;SDS011;18597;48.328;7.932;2023-04-23T10:27:41;1.30;;;0.93;;
32082;SDS011;18597;48.328;7.932;2023-04-23T10:30:11;1.87;;;1.10;;
32082;SDS011;18597;48.328;7.932;2023-04-23T10:32:38;1.13;;;1.13;;
32082;SDS011;18597;48.328;7.932;2023-04-23T10:35:05;1.40;;;1.40;;
32082;SDS011;18597;48.328;7.932;2023-04-23T10:37:33;1.50;;;1.37;;
32082;SDS011;18597;48.328;7.932;2023-04-23T10:40:04;1.33;;;0.90;;
32082;SDS011;18597;48.328;7.932;2023-04-23T10:42:38;0.63;;;0.63;;
32082;SDS011;18597;48.328;7.932;2023-04-23T10:45:13;1.50;;;1.50;;
32082;SDS011;18597;48.328;7.932;2023-04-23T10:47:41;1.20;;;1.20;;
32082;SDS011;18597;48.328;7.932;2023-04-23T10:50:25;0.60;;;0.60;;
32082;SDS011;18597;48.328;7.932;2023-04-23T10:52:53;4.40;;;3.33;;
32082;SDS011;18597;48.328;7.932;2023-04-23T10:55:22;1.03;;;0.77;;
32082;SDS011;18597;48.328;7.932;2023-04-23T10:58:06;5.13;;;1.37;;
32082;SDS011;18597;48.328;7.932;2023-04-23T11:00:47;0.70;;;0.70;;
32082;SDS011;18597;48.328;7.932;2023-04-23T11:03:35;1.03;;;0.70;;
32082;SDS011;18597;48.328;7.932;2023-04-23T11:06:04;0.63;;;0.63;;
32082;SDS011;18597;48.328;7.932;2023-04-23T11:08:31;0.63;;;0.63;;
32082;SDS011;18597;48.328;7.932;2023-04-23T11:11:00;1.93;;;0.50;;
32082;SDS011;18597;48.328;7.932;2023-04-23T11:13:31;0.60;;;0.60;;
32082;SDS011;18597;48.328;7.932;2023-04-23T11:16:29;0.60;;;0.60;;
32082;SDS011;18597;48.328;7.932;2023-04-23T11:19:03;1.00;;;0.60;;
32082;SDS011;18597;48.328;7.932;2023-04-23T11:24:34;4.37;;;0.80;;
32082;SDS011;18597;48.328;7.932;2023-04-23T11:27:06;1.13;;;0.60;;
32082;SDS011;18597;48.328;7.932;2023-04-23T11:29:38;1.37;;;0.80;;
32082;SDS011;18597;48.328;7.932;2023-04-23T11:32:06;1.23;;;0.80;;
32082;SDS011;18597;48.328;7.932;2023-04-23T11:34:38;1.80;;;0.57;;
32082;SDS011;18597;48.328;7.932;2023-04-23T11:37:08;0.80;;;0.80;;
32082;SDS011;18597;48.328;7.932;2023-04-23T11:39:36;1.60;;;0.80;;
32082;SDS011;18597;48.328;7.932;2023-04-23T11:42:08;1.43;;;0.73;;
32082;SDS011;18597;48.328;7.932;2023-04-23T11:44:37;1.00;;;0.90;;
32082;SDS011;18597;48.328;7.932;2023-04-23T11:47:06;4.37;;;1.00;;
32082;SDS011;18597;48.328;7.932;2023-04-23T11:49:35;2.73;;;1.13;;
32082;SDS011;18597;48.328;7.932;2023-04-23T11:52:02;3.50;;;0.97;;
32082;SDS011;18597;48.328;7.932;2023-04-23T11:54:28;0.93;;;0.83;;
32082;SDS011;18597;48.328;7.932;2023-04-23T11:56:55;2.00;;;1.00;;
32082;SDS011;18597;48.328;7.932;2023-04-23T11:59:23;0.90;;;0.90;;
32082;SDS011;18597;48.328;7.932;2023-04-23T12:01:50;1.77;;;1.67;;
32082;SDS011;18597;48.328;7.932;2023-04-23T12:04:21;3.37;;;1.37;;
32082;SDS011;18597;48.328;7.932;2023-04-23T12:06:50;1.17;;;1.10;;
32082;SDS011;18597;48.328;7.932;2023-04-23T12:09:19;1.30;;;1.20;;
32082;SDS011;18597;48.328;7.932;2023-04-23T12:11:47;0.90;;;0.90;;
32082;SDS011;18597;48.328;7.932;2023-04-23T12:14:15;2.17;;;1.00;;
32082;SDS011;18597;48.328;7.932;2023-04-23T12:16:42;1.00;;;1.00;;
32082;SDS011;18597;48.328;7.932;2023-04-23T12:19:12;1.63;;;1.10;;
32082;SDS011;18597;48.328;7.932;2023-04-23T12:21:46;0.90;;;0.90;;
32082;SDS011;18597;48.328;7.932;2023-04-23T12:24:24;0.93;;;0.83;;
32082;SDS011;18597;48.328;7.932;2023-04-23T12:26:55;1.03;;;1.03;;
32082;SDS011;18597;48.328;7.932;2023-04-23T12:29:25;2.10;;;0.80;;
32082;SDS011;18597;48.328;7.932;2023-04-23T12:31:56;1.07;;;0.97;;
32082;SDS011;18597;48.328;7.932;2023-04-23T12:34:23;1.90;;;0.70;;
32082;SDS011;18597;48.328;7.932;2023-04-23T12:36:53;2.10;;;1.70;;
32082;SDS011;18597;48.328;7.932;2023-04-23T12:39:29;0.63;;;0.63;;
32082;SDS011;18597;48.328;7.932;2023-04-23T12:41:58;0.83;;;0.83;;
32082;SDS011;18597;48.328;7.932;2023-04-23T12:44:28;1.33;;;0.97;;
32082;SDS011;18597;48.328;7.932;2023-04-23T12:46:59;1.67;;;0.80;;
32082;SDS011;18597;48.328;7.932;2023-04-23T12:49:29;1.50;;;0.93;;
32082;SDS011;18597;48.328;7.932;2023-04-23T12:51:56;1.33;;;0.97;;
32082;SDS011;18597;48.328;7.932;2023-04-23T12:54:25;0.90;;;0.90;;
32082;SDS011;18597;48.328;7.932;2023-04-23T12:56:53;1.03;;;1.03;;
32082;SDS011;18597;48.328;7.932;2023-04-23T12:59:20;0.90;;;0.90;;
32082;SDS011;18597;48.328;7.932;2023-04-23T13:01:46;5.30;;;1.60;;
32082;SDS011;18597;48.328;7.932;2023-04-23T13:04:12;0.80;;;0.80;;
32082;SDS011;18597;48.328;7.932;2023-04-23T13:06:38;1.53;;;0.83;;
32082;SDS011;18597;48.328;7.932;2023-04-23T13:09:05;1.03;;;0.80;;
32082;SDS011;18597;48.328;7.932;2023-04-23T13:11:34;6.97;;;0.90;;
32082;SDS011;18597;48.328;7.932;2023-04-23T13:14:01;0.90;;;0.90;;
32082;SDS011;18597;48.328;7.932;2023-04-23T13:16:28;0.83;;;0.67;;
32082;SDS011;18597;48.328;7.932;2023-04-23T13:18:54;0.90;;;0.90;;
32082;SDS011;18597;48.328;7.932;2023-04-23T13:21:20;0.87;;;0.87;;
32082;SDS011;18597;48.328;7.932;2023-04-23T13:23:46;0.97;;;0.97;;
32082;SDS011;18597;48.328;7.932;2023-04-23T13:26:12;1.13;;;1.13;;
32082;SDS011;18597;48.328;7.932;2023-04-23T13:28:38;1.57;;;1.10;;
32082;SDS011;18597;48.328;7.932;2023-04-23T13:31:04;0.60;;;0.50;;
32082;SDS011;18597;48.328;7.932;2023-04-23T13:33:30;4.27;;;0.93;;
32082;SDS011;18597;48.328;7.932;2023-04-23T13:35:57;1.57;;;1.47;;
32082;SDS011;18597;48.328;7.932;2023-04-23T13:38:25;0.83;;;0.83;;
32082;SDS011;18597;48.328;7.932;2023-04-23T13:40:52;1.00;;;0.90;;
32082;SDS011;18597;48.328;7.932;2023-04-23T13:43:18;2.20;;;1.03;;
32082;SDS011;18597;48.328;7.932;2023-04-23T13:45:44;1.23;;;1.23;;
32082;SDS011;18597;48.328;7.932;2023-04-23T13:48:11;2.60;;;1.20;;
32082;SDS011;18597;48.328;7.932;2023-04-23T13:50:39;2.33;;;2.13;;
32082;SDS011;18597;48.328;7.932;2023-04-23T13:53:05;2.10;;;2.00;;
32082;SDS011;18597;48.328;7.932;2023-04-23T13:55:32;2.10;;;0.90;;
32082;SDS011;18597;48.328;7.932;2023-04-23T13:57:58;2.00;;;1.37;;
32082;SDS011;18597;48.328;7.932;2023-04-23T14:00:25;3.00;;;1.10;;
32082;SDS011;18597;48.328;7.932;2023-04-23T14:02:53;0.90;;;0.90;;
32082;SDS011;18597;48.328;7.932;2023-04-23T14:05:20;1.60;;;1.50;;
32082;SDS011;18597;48.328;7.932;2023-04-23T14:07:46;0.93;;;0.93;;
32082;SDS011;18597;48.328;7.932;2023-04-23T14:10:12;1.67;;;1.03;;
32082;SDS011;18597;48.328;7.932;2023-04-23T14:12:39;1.07;;;0.97;;
32082;SDS011;18597;48.328;7.932;2023-04-23T14:15:05;8.13;;;1.97;;
32082;SDS011;18597;48.328;7.932;2023-04-23T14:17:33;1.17;;;1.17;;
32082;SDS011;18597;48.328;7.932;2023-04-23T14:19:59;1.13;;;0.50;;
32082;SDS011;18597;48.328;7.932;2023-04-23T14:22:25;0.67;;;0.67;;
32082;SDS011;18597;48.328;7.932;2023-04-23T14:24:55;0.80;;;0.80;;
32082;SDS011;18597;48.328;7.932;2023-04-23T14:27:30;0.93;;;0.60;;
32082;SDS011;18597;48.328;7.932;2023-04-23T14:30:03;4.70;;;0.80;;
32082;SDS011;18597;48.328;7.932;2023-04-23T14:32:30;2.57;;;0.93;;
32082;SDS011;18597;48.328;7.932;2023-04-23T14:34:56;2.30;;;1.00;;
32082;SDS011;18597;48.328;7.932;2023-04-23T14:37:21;2.40;;;0.93;;
32082;SDS011;18597;48.328;7.932;2023-04-23T14:39:47;2.93;;;1.53;;
32082;SDS011;18597;48.328;7.932;2023-04-23T14:42:13;8.43;;;1.50;;
32082;SDS011;18597;48.328;7.932;2023-04-23T14:44:39;4.23;;;4.03;;
32082;SDS011;18597;48.328;7.932;2023-04-23T14:47:05;1.93;;;1.83;;
32082;SDS011;18597;48.328;7.932;2023-04-23T14:49:32;1.20;;;1.20;;
32082;SDS011;18597;48.328;7.932;2023-04-23T14:51:58;1.40;;;1.30;;